Portada
METAR-TAF:

METAR-TAF

Aeropuertos :

Recife, Pernambuco, Brasil

Aeropuerto Internacional de Recife

latitud: 08-08S, longitud: 034-55W, altitud: 19 m

Observación

El informe se hizo hace 37 minutos, a las 09:00 UTC
Viento 2 kt con dirección variable
Temperatura 23°C
Humedad 94%
Presión 1015 hPa
Visibilidad 10 km o más
Escasas nubes a una altura de 2200 ft

METAR: SBRF 190900Z VRB02KT 9999 FEW022 23/22 Q1015

Hora: 06:37 (09:37 UTC)

Pronóstico

El informe se hizo hace 7 horas y 37 minutos, a las 02:00 UTC
Pronóstico válido del 19 a las 06 UTC al 20 a las 06 UTC
Viento 8 kt del sur
Visibilidad: 8000 m
Nubes dispersas a una altura de 2000 ft
Temporalmente
del 19 a las 09 UTC al 19 a las 11 UTC
Visibilidad: 6000 m
Cielo nuboso a una altura de 1700 ft
chaparrones de lluvia

TAF: SBRF 190200Z 1906/2006 18008KT 8000 SCT020 TN23/1908Z TX29/1916Z TEMPO 1909/1911 6000 SHRA BKN017 RMK PCH

Observaciones y pronósticos meteorológicos de más de 4000 aeropuertos (mensajes METAR y TAF).

Los puntos amarillos y rojos representan las estaciones disponibles.

Ponga el ratón en el punto deseado para ver el nombre de la estación.

Haga clic para ver las observaciones y los pronósticos meteorológicos.

Para cambiar el mapa : haga clic en los botones verdes con una cruz de color negro para hacer un zoom, en el botón verde con un guión para alejar o en las flechas verdes para mapas adyacentes.


METAR-TAF: